Time;durP1;ratioP1;P1;durP2;ratioP2;P2;SDS_P1;SDS_P2;PMS_P1;PMS_P2;Temp;Humidity;BMP_temperature;BMP_pressure;BME280_temperature;BME280_humidity;BME280_pressure;Samples;Min_cycle;Max_cycle;Signal;HPM_P1;HPM_P2
2022/09/13 00:00:29;;;;;;;13.13;7.35;;;18.00;99.90;;;;;;5072542;28;20226;-71
2022/09/13 00:02:56;;;;;;;14.32;8.15;;;18.00;99.90;;;;;;5065129;28;20107;-71
2022/09/13 00:05:21;;;;;;;16.45;8.57;;;18.10;99.90;;;;;;5070890;28;20482;-71
2022/09/13 00:07:48;;;;;;;12.77;8.13;;;18.00;99.90;;;;;;5071513;28;20101;-71
2022/09/13 00:10:13;;;;;;;14.88;8.35;;;18.00;99.90;;;;;;5077557;28;20036;-71
2022/09/13 00:12:39;;;;;;;15.75;9.32;;;18.00;99.90;;;;;;5076198;28;20036;-72
2022/09/13 00:15:05;;;;;;;16.17;9.63;;;18.00;99.90;;;;;;5080751;28;20237;-71
2022/09/13 00:17:31;;;;;;;16.80;10.27;;;18.00;99.90;;;;;;5076865;28;20039;-71
2022/09/13 00:19:57;;;;;;;21.33;11.02;;;18.00;99.90;;;;;;5074422;28;20098;-72
2022/09/13 00:22:22;;;;;;;17.02;9.23;;;18.00;99.90;;;;;;5081604;28;20413;-71
2022/09/13 00:24:48;;;;;;;14.27;8.65;;;18.00;99.90;;;;;;5077321;28;20044;-71
2022/09/13 00:27:13;;;;;;;14.18;8.40;;;18.00;99.90;;;;;;5081818;28;20286;-73
2022/09/13 00:29:39;;;;;;;16.05;8.88;;;18.00;99.90;;;;;;5086601;28;20104;-71
2022/09/13 00:32:05;;;;;;;15.27;8.40;;;18.00;99.90;;;;;;5080794;28;20401;-71
2022/09/13 00:34:31;;;;;;;12.02;7.80;;;17.90;99.90;;;;;;5077191;28;20496;-71
2022/09/13 00:36:56;;;;;;;14.15;7.75;;;17.90;99.90;;;;;;5079620;28;20051;-73
2022/09/13 00:39:25;;;;;;;10.93;6.97;;;17.90;99.90;;;;;;5077703;28;20115;-71
2022/09/13 00:41:50;;;;;;;12.75;7.28;;;18.00;99.90;;;;;;5086826;28;20040;-71
2022/09/13 00:44:56;;;;;;;12.27;7.00;;;17.90;99.90;;;;;;5074617;28;20040;-71
2022/09/13 00:47:50;;;;;;;12.70;6.82;;;17.90;99.90;;;;;;5055660;28;20036;-71
2022/09/13 00:50:22;;;;;;;11.65;6.05;;;17.90;99.90;;;;;;5081430;28;20078;-71
2022/09/13 00:53:02;;;;;;;11.82;6.40;;;17.90;99.90;;;;;;5078519;28;20036;-70
2022/09/13 00:55:40;;;;;;;12.00;6.35;;;17.90;99.90;;;;;;5082201;28;20436;-71
2022/09/13 00:58:12;;;;;;;12.07;7.10;;;17.90;99.90;;;;;;5072612;28;20325;-71
2022/09/13 01:00:39;;;;;;;12.68;6.85;;;17.90;99.90;;;;;;5055749;28;20128;-71
2022/09/13 01:03:10;;;;;;;11.05;6.43;;;17.90;99.90;;;;;;5075490;28;20127;-71
2022/09/13 01:05:41;;;;;;;14.90;6.07;;;17.90;99.90;;;;;;5078087;28;20040;-71
2022/09/13 01:08:11;;;;;;;10.95;5.95;;;17.90;99.90;;;;;;5080129;28;20409;-71
2022/09/13 01:10:40;;;;;;;8.50;5.32;;;17.90;99.90;;;;;;5076173;28;20040;-71
2022/09/13 01:13:13;;;;;;;7.72;5.20;;;17.90;99.90;;;;;;5062401;28;20094;-71
2022/09/13 01:15:40;;;;;;;12.63;6.20;;;17.90;99.90;;;;;;5076931;28;20051;-71
2022/09/13 01:18:07;;;;;;;9.43;6.05;;;17.90;99.90;;;;;;5080687;28;20032;-70
2022/09/13 01:20:54;;;;;;;10.63;6.28;;;17.90;99.90;;;;;;5083146;28;20044;-71
2022/09/13 01:23:32;;;;;;;10.77;6.20;;;17.90;99.90;;;;;;5077303;28;20116;-71
2022/09/13 01:26:28;;;;;;;10.40;5.97;;;17.90;99.90;;;;;;5084350;28;20082;-71
2022/09/13 01:29:10;;;;;;;8.38;5.45;;;17.90;99.90;;;;;;5070301;28;20040;-71
2022/09/13 01:31:57;;;;;;;9.48;5.63;;;17.90;99.90;;;;;;5072062;28;20569;-71
2022/09/13 01:34:41;;;;;;;7.63;5.22;;;17.90;99.90;;;;;;5076809;28;20750;-71
2022/09/13 01:37:47;;;;;;;10.13;5.05;;;17.90;99.90;;;;;;5076333;28;20137;-71
2022/09/13 01:40:31;;;;;;;7.82;4.63;;;17.90;99.90;;;;;;5026540;28;20330;-70
2022/09/13 01:43:46;;;;;;;11.63;5.32;;;17.90;99.90;;;;;;5079422;22;20041;31
2022/09/13 01:46:35;;;;;;;11.05;5.18;;;17.90;99.90;;;;;;5012245;28;20054;-72
2022/09/13 01:49:20;;;;;;;7.28;4.97;;;17.90;99.90;;;;;;4996010;28;20105;-72
2022/09/13 01:51:48;;;;;;;6.97;4.75;;;17.90;99.90;;;;;;5000864;28;20081;-72
2022/09/13 01:54:30;;;;;;;8.18;5.18;;;17.90;99.90;;;;;;5001225;28;20044;-72
2022/09/13 01:57:12;;;;;;;10.98;6.40;;;17.90;99.90;;;;;;5004411;28;20563;-72
2022/09/13 02:00:01;;;;;;;9.30;4.80;;;17.90;99.90;;;;;;4995337;28;20049;-72
2022/09/13 02:02:43;;;;;;;7.30;4.70;;;17.90;99.90;;;;;;4996311;28;20065;-72
2022/09/13 02:05:16;;;;;;;10.68;5.38;;;17.90;99.90;;;;;;5015579;28;20104;-72
2022/09/13 02:07:45;;;;;;;7.35;4.93;;;17.90;99.90;;;;;;5000741;28;20038;-72
2022/09/13 02:10:29;;;;;;;10.32;5.43;;;17.90;99.90;;;;;;4992958;28;20097;-72
2022/09/13 02:12:57;;;;;;;9.82;5.72;;;17.90;99.90;;;;;;4998136;28;20093;-72
2022/09/13 02:15:32;;;;;;;9.00;5.35;;;17.90;99.90;;;;;;4996738;28;20579;-72
2022/09/13 02:18:12;;;;;;;9.25;5.03;;;17.90;99.90;;;;;;5017733;28;20252;-72
2022/09/13 02:20:43;;;;;;;8.75;4.60;;;17.90;99.90;;;;;;5001380;28;20577;-72
2022/09/13 02:23:33;;;;;;;9.60;5.13;;;17.90;99.90;;;;;;4999359;28;20404;-72
2022/09/13 02:26:01;;;;;;;8.48;5.03;;;17.90;99.90;;;;;;5009472;28;20044;-72
2022/09/13 02:28:32;;;;;;;8.82;5.43;;;17.90;99.90;;;;;;5001721;28;20069;-72
2022/09/13 02:31:01;;;;;;;8.57;5.65;;;17.90;99.90;;;;;;5019339;28;20507;-72
2022/09/13 02:33:34;;;;;;;8.43;5.25;;;17.90;99.90;;;;;;4999220;28;20129;-72
2022/09/13 02:36:04;;;;;;;8.32;5.43;;;17.90;99.90;;;;;;5000950;28;20050;-72
2022/09/13 02:38:36;;;;;;;9.13;5.10;;;17.90;99.90;;;;;;5001463;28;20049;-71
2022/09/13 02:41:09;;;;;;;9.68;5.38;;;17.90;99.90;;;;;;5001674;28;20052;-72
2022/09/13 02:43:41;;;;;;;9.68;5.78;;;18.00;99.90;;;;;;5009786;28;20044;-72
2022/09/13 02:46:40;;;;;;;8.52;5.38;;;18.00;99.90;;;;;;5021665;28;20095;-72
2022/09/13 02:49:15;;;;;;;11.18;6.00;;;18.00;99.90;;;;;;5031656;28;20132;-72
2022/09/13 02:51:54;;;;;;;9.43;5.25;;;18.00;99.90;;;;;;5017807;28;20037;-72
2022/09/13 02:54:37;;;;;;;12.02;5.25;;;18.00;99.90;;;;;;5018472;28;20053;-72
2022/09/13 02:57:13;;;;;;;10.98;5.57;;;18.00;99.90;;;;;;5025522;28;20120;-72
2022/09/13 02:59:39;;;;;;;8.90;5.72;;;18.00;99.90;;;;;;5038028;28;20055;-72
2022/09/13 03:02:12;;;;;;;8.65;5.40;;;18.00;99.90;;;;;;5022149;28;20049;-72
2022/09/13 03:04:38;;;;;;;7.53;4.63;;;18.00;99.90;;;;;;5030755;28;20075;-72
2022/09/13 03:07:09;;;;;;;7.22;3.60;;;18.00;99.90;;;;;;5042030;28;20404;-72
2022/09/13 03:09:35;;;;;;;5.80;3.13;;;18.00;99.90;;;;;;5025691;28;20041;-72
2022/09/13 03:12:04;;;;;;;4.10;2.50;;;18.00;99.90;;;;;;5025366;28;20469;-71
2022/09/13 03:15:07;;;;;;;5.15;2.53;;;18.10;99.90;;;;;;5021323;28;20068;-72
2022/09/13 03:17:54;;;;;;;3.42;1.88;;;18.10;99.90;;;;;;5012795;28;20063;-72
2022/09/13 03:20:34;;;;;;;3.58;1.70;;;18.00;99.90;;;;;;5042649;28;20044;-72
2022/09/13 03:23:20;;;;;;;1.98;1.10;;;18.00;99.90;;;;;;5037800;28;20040;-72
2022/09/13 03:26:30;;;;;;;3.40;1.23;;;18.00;99.90;;;;;;5039400;28;20190;-72
2022/09/13 03:29:05;;;;;;;2.55;1.27;;;18.00;99.90;;;;;;5038823;28;20128;-72
2022/09/13 03:32:01;;;;;;;2.72;1.23;;;18.00;99.90;;;;;;5035338;28;20051;-72
2022/09/13 03:34:43;;;;;;;2.67;1.30;;;18.10;99.90;;;;;;5022183;28;20556;-72
2022/09/13 03:37:28;;;;;;;2.80;0.95;;;18.00;99.90;;;;;;5024006;28;20117;-72
2022/09/13 03:40:03;;;;;;;1.65;1.02;;;18.10;99.90;;;;;;5036091;28;20041;-72
2022/09/13 03:42:47;;;;;;;2.42;1.10;;;18.00;99.90;;;;;;5040815;28;20131;-72
2022/09/13 03:45:15;;;;;;;5.22;0.85;;;18.00;99.90;;;;;;5034849;28;20040;-72
2022/09/13 03:47:44;;;;;;;1.15;0.70;;;18.00;99.90;;;;;;5027136;28;20041;-72
2022/09/13 03:50:16;;;;;;;1.67;0.80;;;18.00;99.90;;;;;;5018799;28;20689;-72
2022/09/13 03:52:44;;;;;;;1.65;0.63;;;18.00;99.90;;;;;;5039842;28;20109;-72
2022/09/13 03:55:10;;;;;;;2.42;0.75;;;18.00;99.90;;;;;;5040403;28;20032;-72
2022/09/13 03:57:36;;;;;;;0.80;0.60;;;18.00;99.90;;;;;;5014621;28;20041;-71
2022/09/13 04:00:02;;;;;;;4.65;0.60;;;17.90;99.90;;;;;;5035405;28;20045;-72
2022/09/13 04:02:28;;;;;;;1.38;0.60;;;17.90;99.90;;;;;;5028119;28;20134;-72
2022/09/13 04:04:53;;;;;;;3.33;0.50;;;17.90;99.90;;;;;;5027138;28;20044;-72
2022/09/13 04:07:23;;;;;;;0.82;0.40;;;17.80;99.90;;;;;;5043157;28;20418;-72
2022/09/13 04:09:49;;;;;;;1.77;0.82;;;17.90;99.90;;;;;;5033386;28;20617;-72
2022/09/13 04:12:16;;;;;;;1.27;0.43;;;17.80;99.90;;;;;;5032068;28;20562;-72
2022/09/13 04:14:45;;;;;;;0.50;0.40;;;17.80;99.90;;;;;;5057932;28;20067;-72
2022/09/13 04:17:11;;;;;;;0.47;0.25;;;17.70;99.90;;;;;;5023679;28;20044;-72
2022/09/13 04:19:36;;;;;;;;;;;17.70;99.90;;;;;;5046446;28;20032;-71
2022/09/13 04:22:02;;;;;;;1.85;0.70;;;17.70;99.90;;;;;;5042969;28;20174;-72
2022/09/13 04:24:29;;;;;;;2.53;0.30;;;17.70;99.90;;;;;;5022753;28;20048;-71
2022/09/13 04:26:56;;;;;;;1.10;0.52;;;17.70;99.90;;;;;;5051189;28;20041;-71
2022/09/13 04:29:24;;;;;;;2.75;0.85;;;17.70;99.90;;;;;;5025125;28;20294;-72
2022/09/13 04:31:51;;;;;;;2.00;0.60;;;17.60;99.90;;;;;;5022227;28;20100;-72
2022/09/13 04:34:17;;;;;;;1.23;0.65;;;17.60;99.90;;;;;;5046838;28;20108;-71
2022/09/13 04:36:43;;;;;;;;;;;17.60;99.90;;;;;;5026318;28;20487;-72
2022/09/13 04:39:09;;;;;;;1.88;0.75;;;17.60;99.90;;;;;;5044534;28;19928;-71
2022/09/13 04:41:35;;;;;;;2.25;0.82;;;17.60;99.90;;;;;;5043117;28;20037;-72
2022/09/13 04:44:01;;;;;;;2.20;0.70;;;17.60;99.90;;;;;;5035298;28;20052;-71
2022/09/13 04:46:27;;;;;;;;;;;17.60;99.90;;;;;;5027993;28;20395;-72
2022/09/13 04:48:52;;;;;;;1.20;0.80;;;17.60;99.90;;;;;;5025590;28;20118;-72
2022/09/13 04:51:21;;;;;;;1.88;0.68;;;17.50;99.90;;;;;;5043142;28;20051;-71
2022/09/13 04:53:54;;;;;;;2.85;0.80;;;17.50;99.90;;;;;;5044599;28;20037;-72
2022/09/13 04:56:22;;;;;;;1.73;1.00;;;17.50;99.90;;;;;;5039350;28;20509;-72
2022/09/13 04:58:49;;;;;;;0.73;0.40;;;17.50;99.90;;;;;;5025618;28;20233;-72
2022/09/13 05:01:16;;;;;;;1.52;0.43;;;17.50;99.90;;;;;;5026215;28;20123;-72
2022/09/13 05:03:41;;;;;;;1.35;0.70;;;17.50;99.90;;;;;;5039686;28;20076;-72
2022/09/13 05:06:10;;;;;;;6.70;0.85;;;17.50;99.90;;;;;;5037468;28;20064;-72
2022/09/13 05:08:36;;;;;;;2.15;0.85;;;17.50;99.90;;;;;;5043590;28;20088;-72
2022/09/13 05:11:03;;;;;;;2.33;0.80;;;17.50;99.90;;;;;;5027844;28;20456;-72
2022/09/13 05:13:29;;;;;;;0.90;0.43;;;17.50;99.90;;;;;;5025697;28;20095;-72
2022/09/13 05:16:00;;;;;;;3.10;0.70;;;17.50;99.90;;;;;;5042836;28;20045;-72
2022/09/13 05:18:31;;;;;;;2.60;1.10;;;17.40;99.90;;;;;;5028293;28;20060;-72
2022/09/13 05:21:02;;;;;;;3.22;0.75;;;17.50;99.90;;;;;;5045799;28;20070;-72
2022/09/13 05:23:30;;;;;;;2.25;0.55;;;17.40;99.90;;;;;;5043025;28;20526;-70
2022/09/13 05:26:07;;;;;;;1.42;0.70;;;17.40;99.90;;;;;;5038189;28;20036;-70
2022/09/13 05:28:35;;;;;;;3.92;0.90;;;17.40;99.90;;;;;;5038265;28;20053;-72
2022/09/13 05:31:13;;;;;;;11.20;1.58;;;17.40;99.90;;;;;;5026062;28;20044;-70
2022/09/13 05:33:39;;;;;;;2.85;0.80;;;17.40;99.90;;;;;;5024279;28;20179;-70
2022/09/13 05:36:05;;;;;;;4.75;1.00;;;17.40;99.90;;;;;;5048805;28;20282;-70
2022/09/13 05:38:32;;;;;;;3.10;0.70;;;17.40;99.90;;;;;;5041172;28;20066;-70
2022/09/13 05:41:02;;;;;;;3.33;1.00;;;17.40;99.90;;;;;;5045124;28;20291;-70
2022/09/13 05:43:30;;;;;;;1.63;0.90;;;17.40;99.90;;;;;;5034621;28;20049;-71
2022/09/13 05:46:11;;;;;;;2.40;1.13;;;17.40;99.90;;;;;;5017415;28;20522;-73
2022/09/13 05:48:37;;;;;;;2.72;0.95;;;17.40;99.90;;;;;;5040562;28;20510;-73
2022/09/13 05:51:09;;;;;;;2.55;0.82;;;17.40;99.90;;;;;;5006590;28;20072;-73
2022/09/13 05:53:39;;;;;;;1.73;0.90;;;17.40;99.90;;;;;;5019986;28;20276;-74
2022/09/13 05:56:07;;;;;;;1.48;0.85;;;17.40;99.90;;;;;;5045913;28;20037;-72
2022/09/13 05:58:34;;;;;;;3.47;1.42;;;17.40;99.90;;;;;;5026688;28;20041;-71
2022/09/13 06:01:00;;;;;;;1.35;0.98;;;17.40;99.90;;;;;;5041029;28;20260;-71
2022/09/13 06:03:25;;;;;;;1.90;0.80;;;17.50;99.90;;;;;;5013856;28;20300;-71
2022/09/13 06:05:56;;;;;;;2.25;0.77;;;17.40;99.90;;;;;;5008000;28;20056;-71
2022/09/13 06:08:27;;;;;;;1.95;1.48;;;17.50;99.90;;;;;;5027403;28;20041;-72
2022/09/13 06:10:55;;;;;;;2.72;0.82;;;17.50;99.90;;;;;;5029799;28;20053;-71
2022/09/13 06:13:21;;;;;;;3.65;1.02;;;17.50;99.90;;;;;;5042846;28;20116;-72
2022/09/13 06:15:47;;;;;;;4.22;1.00;;;17.50;99.90;;;;;;5051214;28;20148;-74
2022/09/13 06:18:13;;;;;;;8.07;1.10;;;17.50;99.90;;;;;;5045817;28;20074;-70
2022/09/13 06:20:38;;;;;;;2.50;1.05;;;17.50;99.90;;;;;;5025843;28;20045;-71
2022/09/13 06:23:04;;;;;;;4.82;1.67;;;17.50;99.90;;;;;;5029769;28;20124;-73
2022/09/13 06:25:29;;;;;;;2.85;1.00;;;17.50;99.90;;;;;;5024494;28;20041;-72
2022/09/13 06:27:55;;;;;;;2.47;1.25;;;17.50;99.90;;;;;;5039702;28;20053;-73
2022/09/13 06:30:21;;;;;;;1.60;0.90;;;17.50;99.90;;;;;;5016820;28;20040;-74
2022/09/13 06:32:47;;;;;;;3.20;0.88;;;17.50;99.90;;;;;;5041675;28;20187;-75
2022/09/13 06:35:12;;;;;;;2.30;1.10;;;17.50;99.90;;;;;;5026128;28;20197;-74
2022/09/13 06:37:38;;;;;;;1.88;0.73;;;17.50;99.90;;;;;;5023455;28;20041;-72
2022/09/13 06:40:05;;;;;;;2.08;0.82;;;17.50;99.90;;;;;;5036249;28;20040;-74
2022/09/13 06:42:36;;;;;;;3.92;1.10;;;17.50;99.90;;;;;;5025894;28;20517;-72
2022/09/13 06:45:03;;;;;;;2.17;0.80;;;17.60;99.90;;;;;;5039188;28;20056;-73
2022/09/13 06:47:29;;;;;;;4.25;1.00;;;17.60;99.90;;;;;;5022641;28;20059;-72
2022/09/13 06:49:54;;;;;;;10.40;1.30;;;17.60;99.90;;;;;;5042969;28;20033;-71
2022/09/13 06:52:20;;;;;;;2.58;1.10;;;17.60;99.90;;;;;;5043233;28;20052;-71
2022/09/13 06:54:46;;;;;;;2.58;0.90;;;17.60;99.90;;;;;;5031903;28;20032;-71
2022/09/13 06:57:12;;;;;;;1.70;0.90;;;17.60;99.90;;;;;;5041611;28;20351;-71
2022/09/13 06:59:38;;;;;;;2.03;0.80;;;17.60;99.90;;;;;;5032206;28;20052;-71
2022/09/13 07:02:03;;;;;;;2.17;0.82;;;17.70;99.90;;;;;;5039533;28;20041;-71
2022/09/13 07:04:32;;;;;;;3.63;0.88;;;17.70;99.90;;;;;;5035989;28;20041;-71
2022/09/13 07:06:58;;;;;;;5.20;1.25;;;17.70;99.90;;;;;;5039958;28;20128;-71
2022/09/13 07:09:25;;;;;;;1.40;0.52;;;17.70;99.90;;;;;;5035067;28;20531;-71
2022/09/13 07:11:54;;;;;;;2.58;0.50;;;17.70;99.90;;;;;;5025588;28;20453;-71
2022/09/13 07:14:25;;;;;;;4.78;0.60;;;17.70;99.90;;;;;;5027044;28;20049;-71
2022/09/13 07:16:52;;;;;;;1.50;0.50;;;17.70;99.90;;;;;;5025153;28;20529;-71
2022/09/13 07:19:23;;;;;;;2.97;0.50;;;17.70;99.90;;;;;;5029205;28;20098;-72
2022/09/13 07:21:49;;;;;;;1.30;0.40;;;17.80;99.90;;;;;;5046014;28;20590;-72
2022/09/13 07:24:19;;;;;;;1.95;0.50;;;17.80;99.90;;;;;;5023543;28;20506;-72
2022/09/13 07:26:46;;;;;;;2.10;0.60;;;17.80;99.90;;;;;;5025085;28;20053;-71
2022/09/13 07:29:15;;;;;;;1.38;0.57;;;17.90;99.90;;;;;;5042502;28;20414;-72
2022/09/13 07:31:43;;;;;;;1.10;0.25;;;17.90;99.90;;;;;;5024665;28;20045;-72
2022/09/13 07:34:16;;;;;;;1.48;0.40;;;17.90;99.90;;;;;;5024019;28;20056;-72
2022/09/13 07:36:42;;;;;;;1.92;0.40;;;17.90;99.90;;;;;;5024217;28;20051;-72
2022/09/13 07:39:08;;;;;;;4.03;0.50;;;17.90;99.90;;;;;;5040702;28;20033;-72
2022/09/13 07:41:34;;;;;;;3.55;0.57;;;17.80;99.90;;;;;;5021560;28;20045;-72
2022/09/13 07:44:00;;;;;;;2.17;0.50;;;17.80;99.90;;;;;;5053887;22;20143;-71
2022/09/13 07:46:32;;;;;;;4.50;0.50;;;17.80;99.90;;;;;;5079070;28;20427;-70
2022/09/13 07:48:59;;;;;;;2.00;0.40;;;17.80;99.90;;;;;;5073687;28;20036;-71
2022/09/13 07:51:27;;;;;;;4.68;0.40;;;17.80;99.90;;;;;;5065530;28;20044;-70
2022/09/13 07:53:56;;;;;;;3.85;0.55;;;17.80;99.90;;;;;;5056965;28;20040;-71
2022/09/13 07:56:27;;;;;;;2.83;0.65;;;17.80;99.90;;;;;;5077647;28;20386;-71
2022/09/13 07:58:54;;;;;;;1.05;0.30;;;17.90;99.90;;;;;;5055325;28;20052;-71
2022/09/13 08:01:20;;;;;;;2.85;0.47;;;17.90;99.90;;;;;;5060717;28;20055;-71
2022/09/13 08:03:53;;;;;;;1.02;0.30;;;17.90;99.90;;;;;;5048680;28;20150;-71
2022/09/13 08:06:19;;;;;;;3.90;0.60;;;17.90;99.90;;;;;;5053570;28;20040;-70
2022/09/13 08:08:45;;;;;;;2.42;0.20;;;17.90;99.90;;;;;;5055231;28;20075;-70
2022/09/13 08:11:19;;;;;;;1.33;0.40;;;17.90;99.90;;;;;;5056090;28;20076;-70
2022/09/13 08:13:46;;;;;;;2.13;0.30;;;17.90;99.90;;;;;;5055563;28;20036;-70
2022/09/13 08:16:13;;;;;;;1.85;0.40;;;17.90;99.90;;;;;;5051476;28;20605;-70
2022/09/13 08:18:53;;;;;;;3.70;0.32;;;18.00;99.90;;;;;;5049936;28;20097;-70
2022/09/13 08:21:19;;;;;;;1.60;0.60;;;18.00;99.90;;;;;;5056886;28;20106;-70
2022/09/13 08:23:45;;;;;;;3.33;1.13;;;18.00;99.90;;;;;;5062066;28;20040;-70
2022/09/13 08:26:11;;;;;;;1.95;0.20;;;18.10;99.90;;;;;;5057749;28;20437;-70
2022/09/13 08:28:39;;;;;;;4.80;0.82;;;18.10;99.90;;;;;;5056736;28;20508;-70
2022/09/13 08:31:15;;;;;;;5.18;0.50;;;18.20;99.90;;;;;;5063669;28;20374;-70
2022/09/13 08:33:44;;;;;;;2.03;0.55;;;18.30;99.90;;;;;;5056416;28;20087;-70
2022/09/13 08:36:09;;;;;;;2.22;0.40;;;18.30;99.90;;;;;;5053547;28;20131;-70
2022/09/13 08:38:35;;;;;;;2.72;0.50;;;18.30;99.90;;;;;;5050489;28;20163;-70
2022/09/13 08:41:19;;;;;;;1.70;0.60;;;18.30;99.90;;;;;;5058758;28;20055;-70
2022/09/13 08:43:58;;;;;;;1.83;0.35;;;18.40;99.90;;;;;;5058749;28;20094;-70
2022/09/13 08:46:43;;;;;;;0.95;0.25;;;18.40;99.90;;;;;;5048605;28;20977;-70
2022/09/13 08:49:22;;;;;;;1.98;0.40;;;18.40;99.90;;;;;;5058091;28;20400;-70
2022/09/13 08:51:53;;;;;;;2.50;0.60;;;18.30;99.90;;;;;;5053742;28;20913;-70
2022/09/13 08:54:19;;;;;;;1.95;0.30;;;18.40;99.90;;;;;;5055824;28;20109;-70
2022/09/13 08:56:51;;;;;;;3.17;0.70;;;18.40;99.90;;;;;;5061205;28;20050;-70
2022/09/13 08:59:25;;;;;;;4.47;0.60;;;18.50;99.90;;;;;;5062962;28;20067;-69
2022/09/13 09:02:27;;;;;;;1.65;0.43;;;18.60;99.90;;;;;;5052236;28;20494;-69
2022/09/13 09:05:04;;;;;;;2.13;0.30;;;18.60;99.90;;;;;;5061116;28;20060;-70
2022/09/13 09:07:36;;;;;;;3.90;0.40;;;18.60;99.90;;;;;;5057778;28;20045;-70
2022/09/13 09:10:18;;;;;;;3.00;0.45;;;18.70;99.90;;;;;;5055854;28;20206;-71
2022/09/13 09:12:50;;;;;;;3.30;0.20;;;18.70;99.90;;;;;;5062657;28;20185;-69
2022/09/13 09:15:18;;;;;;;2.78;0.60;;;18.80;99.90;;;;;;5061464;28;20142;-70
2022/09/13 09:18:19;;;;;;;2.50;0.40;;;18.80;99.90;;;;;;5058086;28;20036;-70
2022/09/13 09:20:46;;;;;;;2.45;0.40;;;18.90;99.90;;;;;;5047826;28;20528;-70
2022/09/13 09:23:36;;;;;;;2.97;0.65;;;18.90;99.90;;;;;;5062651;28;20527;-70
2022/09/13 09:26:12;;;;;;;5.82;0.68;;;18.90;99.90;;;;;;5069692;28;20131;-70
2022/09/13 09:28:38;;;;;;;3.00;0.45;;;19.00;99.90;;;;;;5054869;28;20199;-70
2022/09/13 09:31:13;;;;;;;4.63;0.28;;;19.00;99.90;;;;;;5051159;28;20510;-70
2022/09/13 09:33:59;;;;;;;5.50;0.80;;;19.10;99.90;;;;;;5064118;28;20040;-71
2022/09/13 09:36:45;;;;;;;2.63;0.40;;;19.20;99.90;;;;;;5060819;28;20111;-69
2022/09/13 09:39:13;;;;;;;1.55;0.40;;;19.20;99.90;;;;;;5052816;28;20044;-70
2022/09/13 09:41:39;;;;;;;2.80;0.55;;;19.20;99.90;;;;;;5044366;28;20068;-70
2022/09/13 09:44:21;;;;;;;2.60;0.50;;;19.20;99.90;;;;;;5056759;28;20122;-70
2022/09/13 09:46:50;;;;;;;0.95;0.20;;;19.20;99.90;;;;;;5073238;28;20092;-70
2022/09/13 09:52:10;;;;;;;1.10;0.40;;;19.20;99.90;;;;;;5055317;28;20403;-70
2022/09/13 09:54:37;;;;;;;1.00;0.20;;;19.30;99.90;;;;;;5071203;28;20036;-70
2022/09/13 09:57:05;;;;;;;2.22;0.43;;;19.40;99.90;;;;;;5057411;28;20041;-70
2022/09/13 09:59:33;;;;;;;2.80;0.60;;;19.50;99.90;;;;;;5053655;28;20094;-70
2022/09/13 10:02:18;;;;;;;3.50;0.30;;;19.60;99.90;;;;;;5054401;28;20486;-70
2022/09/13 10:04:55;;;;;;;2.53;0.95;;;19.80;99.90;;;;;;5060421;28;20029;-70
2022/09/13 10:07:31;;;;;;;2.10;0.40;;;19.90;99.90;;;;;;5054307;28;20460;-71
2022/09/13 10:10:23;;;;;;;1.38;0.40;;;19.80;99.90;;;;;;5054100;28;20371;-71
2022/09/13 10:12:53;;;;;;;3.05;0.70;;;19.70;99.90;;;;;;5052712;28;20090;-70
2022/09/13 10:15:22;;;;;;;1.13;0.45;;;19.60;99.90;;;;;;5057192;28;20036;-71
2022/09/13 10:18:15;;;;;;;1.90;0.20;;;19.50;99.90;;;;;;5065410;28;20090;-70
2022/09/13 10:20:41;;;;;;;2.03;0.30;;;19.50;99.90;;;;;;5056355;28;20037;-71
2022/09/13 10:23:14;;;;;;;1.48;0.17;;;19.60;99.90;;;;;;5060300;28;20119;-71
2022/09/13 10:25:42;;;;;;;2.30;0.30;;;19.60;99.90;;;;;;5067498;28;20502;-71
2022/09/13 10:28:17;;;;;;;4.93;0.40;;;19.70;99.90;;;;;;5057281;28;20389;-70
2022/09/13 10:30:48;;;;;;;3.22;0.47;;;19.90;99.90;;;;;;5059855;28;20048;-70
2022/09/13 10:33:29;;;;;;;3.40;0.35;;;20.00;99.90;;;;;;5054248;28;20033;-70
2022/09/13 10:35:59;;;;;;;1.15;0.38;;;20.10;99.90;;;;;;5064381;28;20390;-71
2022/09/13 10:38:29;;;;;;;1.98;0.40;;;20.20;99.90;;;;;;5055793;28;20094;-71
2022/09/13 10:40:56;;;;;;;6.57;1.05;;;20.30;99.90;;;;;;5049549;28;20033;-70
2022/09/13 10:43:23;;;;;;;2.80;0.32;;;20.40;99.90;;;;;;5048471;28;20483;-71
2022/09/13 10:45:50;;;;;;;1.13;0.40;;;20.50;99.90;;;;;;5051231;28;20056;-70
2022/09/13 10:48:19;;;;;;;6.18;0.50;;;20.70;99.90;;;;;;5053885;28;20121;-71
2022/09/13 10:51:00;;;;;;;0.80;0.28;;;20.80;99.90;;;;;;5055793;28;20044;-70
2022/09/13 10:53:37;;;;;;;0.82;0.22;;;20.80;99.90;;;;;;5060023;28;20540;-72
2022/09/13 10:56:04;;;;;;;4.32;0.60;;;20.90;99.90;;;;;;5059089;28;20032;-71
2022/09/13 10:58:30;;;;;;;1.65;0.30;;;20.90;99.90;;;;;;5055491;28;20359;-70
2022/09/13 11:01:14;;;;;;;2.97;0.30;;;21.00;99.90;;;;;;5030206;28;20043;-71
2022/09/13 11:04:18;;;;;;;1.25;0.25;;;21.00;99.90;;;;;;5059136;28;20048;-71
2022/09/13 11:07:16;;;;;;;1.77;0.40;;;20.90;99.90;;;;;;5054267;28;20053;-71
2022/09/13 11:09:54;;;;;;;2.70;0.40;;;20.70;99.90;;;;;;5041134;28;20044;-71
2022/09/13 11:12:27;;;;;;;1.15;0.35;;;20.60;99.90;;;;;;5059388;28;20487;-71
2022/09/13 11:15:19;;;;;;;3.38;0.45;;;20.50;99.90;;;;;;5052985;28;20029;-70
2022/09/13 11:18:05;;;;;;;0.93;0.30;;;20.40;99.90;;;;;;5055177;28;20051;-71
2022/09/13 11:20:37;;;;;;;1.92;0.32;;;20.30;99.90;;;;;;5050061;28;20136;-70
2022/09/13 11:23:16;;;;;;;1.83;0.40;;;20.50;99.90;;;;;;5051141;28;20351;-71
2022/09/13 11:26:03;;;;;;;3.30;0.43;;;20.70;99.90;;;;;;5060605;28;20122;-71
2022/09/13 11:28:28;;;;;;;0.82;0.30;;;20.90;99.90;;;;;;5059901;28;20386;-71
2022/09/13 11:31:06;;;;;;;1.77;0.30;;;21.10;99.90;;;;;;5060117;28;20044;-71
2022/09/13 11:33:32;;;;;;;3.55;0.30;;;21.20;99.90;;;;;;5052207;28;20381;-71
2022/09/13 11:36:35;;;;;;;0.63;0.20;;;21.30;99.90;;;;;;5058292;28;20055;-70
2022/09/13 11:39:25;;;;;;;3.22;0.50;;;21.30;99.90;;;;;;5052656;28;20077;-71
2022/09/13 11:42:06;;;;;;;3.00;0.50;;;21.40;99.90;;;;;;5051060;28;20513;-71
2022/09/13 11:44:54;;;;;;;3.20;0.43;;;21.50;99.90;;;;;;5054150;28;20045;-71
2022/09/13 11:47:21;;;;;;;1.25;0.30;;;21.50;99.90;;;;;;5056229;28;20450;-71
2022/09/13 11:50:00;;;;;;;0.93;0.30;;;21.60;99.90;;;;;;5049843;28;20592;-71
2022/09/13 11:52:47;;;;;;;1.70;0.35;;;21.70;99.90;;;;;;5047973;28;20041;-70
2022/09/13 11:55:31;;;;;;;1.00;0.30;;;21.70;99.90;;;;;;5023918;28;20080;-71
2022/09/13 11:58:01;;;;;;;2.22;0.43;;;21.90;99.90;;;;;;5050992;28;20222;-71
2022/09/13 12:00:36;;;;;;;2.45;0.35;;;21.90;99.90;;;;;;5053575;28;20440;-71
2022/09/13 12:03:10;;;;;;;5.20;0.57;;;22.00;99.90;;;;;;5058216;28;20116;-71
2022/09/13 12:05:44;;;;;;;3.25;0.47;;;22.00;99.90;;;;;;5042839;28;20078;-71
2022/09/13 12:08:20;;;;;;;3.60;0.98;;;22.00;99.90;;;;;;5056196;28;20162;-72
2022/09/13 12:10:49;;;;;;;3.30;0.88;;;22.10;99.90;;;;;;5057894;28;20449;-71
2022/09/13 12:13:23;;;;;;;0.98;0.30;;;22.10;99.90;;;;;;5034639;28;20086;-71
2022/09/13 12:16:01;;;;;;;4.00;0.47;;;22.00;99.90;;;;;;5053650;28;20347;-71
2022/09/13 12:18:30;;;;;;;4.72;0.68;;;22.00;99.90;;;;;;5047425;28;20114;-71
2022/09/13 12:21:19;;;;;;;2.80;0.40;;;21.90;99.90;;;;;;5057566;28;20044;-70
2022/09/13 12:24:12;;;;;;;3.28;0.70;;;21.90;99.90;;;;;;5039737;28;20061;-71
2022/09/13 12:26:50;;;;;;;4.90;0.65;;;21.90;99.90;;;;;;5051881;28;20049;-71
2022/09/13 12:29:39;;;;;;;3.08;0.60;;;21.80;99.90;;;;;;5054040;28;20052;-71
2022/09/13 12:32:06;;;;;;;2.08;0.57;;;21.80;99.90;;;;;;5044965;28;20464;-71
2022/09/13 12:34:44;;;;;;;1.13;0.20;;;21.70;99.90;;;;;;5062405;28;20452;-70
2022/09/13 12:37:26;;;;;;;4.35;0.95;;;21.60;99.90;;;;;;5051262;28;20444;-70
2022/09/13 12:40:28;;;;;;;3.08;0.60;;;21.50;99.90;;;;;;5054251;28;20048;-70
2022/09/13 12:43:03;;;;;;;2.13;0.75;;;21.40;99.90;;;;;;5054371;28;20099;-71
2022/09/13 12:45:36;;;;;;;7.47;0.63;;;21.40;99.90;;;;;;5052529;28;20044;-71
2022/09/13 12:48:49;;;;;;;3.03;0.73;;;21.40;99.90;;;;;;5058989;28;20575;-71
2022/09/13 12:51:38;;;;;;;3.85;0.65;;;21.50;99.90;;;;;;4993327;28;20101;-71
2022/09/13 12:54:39;;;;;;;5.03;0.85;;;21.60;99.90;;;;;;5001858;28;20030;-71
2022/09/13 12:57:19;;;;;;;1.58;0.50;;;21.70;99.90;;;;;;5040833;28;20037;-70
2022/09/13 12:59:47;;;;;;;2.25;0.40;;;21.80;99.90;;;;;;5056119;28;20502;-70
2022/09/13 13:02:33;;;;;;;2.78;0.20;;;22.00;99.90;;;;;;5057781;28;20134;-70
2022/09/13 13:05:05;;;;;;;2.13;0.40;;;22.10;99.90;;;;;;5063638;28;20048;-71
2022/09/13 13:07:36;;;;;;;3.47;0.52;;;22.20;99.90;;;;;;5056859;28;20049;-70
2022/09/13 13:10:03;;;;;;;1.98;0.80;;;22.30;99.90;;;;;;5048907;28;20106;-70
2022/09/13 13:12:35;;;;;;;2.42;0.50;;;22.30;99.90;;;;;;5058111;28;20470;-71
2022/09/13 13:15:06;;;;;;;2.40;0.40;;;22.30;99.90;;;;;;5054684;28;20037;-70
2022/09/13 13:17:37;;;;;;;3.63;1.00;;;22.20;99.90;;;;;;5054444;28;20041;-70
2022/09/13 13:20:38;;;;;;;2.28;0.40;;;22.10;99.90;;;;;;5056332;28;20565;-70